createdAt,value
2024-05-09T00:01:37.824Z,4.22
2024-05-09T00:03:41.642Z,3.35
2024-05-09T00:05:44.792Z,3.78
2024-05-09T00:07:47.340Z,3.25
2024-05-09T00:09:49.689Z,4.18
2024-05-09T00:11:52.254Z,3.22
2024-05-09T00:13:54.706Z,3.72
2024-05-09T00:15:57.234Z,3.50
2024-05-09T00:17:59.741Z,3.45
2024-05-09T00:20:03.237Z,2.83
2024-05-09T00:22:07.863Z,3.30
2024-05-09T00:24:10.506Z,3.38
2024-05-09T00:26:17.746Z,3.20
2024-05-09T00:28:20.180Z,3.95
2024-05-09T00:30:31.579Z,3.50
2024-05-09T00:32:37.633Z,3.72
2024-05-09T00:34:40.050Z,3.38
2024-05-09T00:36:42.510Z,3.20
2024-05-09T00:38:47.827Z,3.60
2024-05-09T00:40:50.186Z,3.70
2024-05-09T00:42:52.437Z,3.88
2024-05-09T00:44:55.001Z,3.83
2024-05-09T00:46:57.921Z,3.95
2024-05-09T00:49:01.369Z,4.32
2024-05-09T00:51:05.635Z,4.43
2024-05-09T00:53:11.480Z,4.45
2024-05-09T00:55:16.570Z,4.40
2024-05-09T00:57:18.948Z,4.38
2024-05-09T00:59:24.401Z,5.15
2024-05-09T01:01:27.228Z,4.25
2024-05-09T01:03:29.922Z,4.25
2024-05-09T01:05:32.785Z,4.30
2024-05-09T01:07:35.189Z,4.43
2024-05-09T01:09:37.605Z,5.00
2024-05-09T01:11:41.308Z,3.85
2024-05-09T01:13:45.282Z,4.13
2024-05-09T01:15:50.399Z,4.10
2024-05-09T01:17:55.952Z,4.32
2024-05-09T01:19:58.726Z,4.35
2024-05-09T01:22:01.373Z,4.55
2024-05-09T01:24:03.909Z,4.07
2024-05-09T01:26:06.520Z,4.38
2024-05-09T01:28:08.969Z,4.13
2024-05-09T01:30:17.227Z,4.13
2024-05-09T01:32:23.800Z,4.13
2024-05-09T01:34:27.151Z,3.55
2024-05-09T01:36:30.038Z,3.88
2024-05-09T01:38:32.434Z,3.95
2024-05-09T01:40:38.937Z,4.70
2024-05-09T01:42:42.898Z,4.72
2024-05-09T01:44:45.345Z,5.45
2024-05-09T01:46:47.691Z,4.35
2024-05-09T01:48:50.420Z,5.35
2024-05-09T01:50:53.035Z,4.13
2024-05-09T01:52:55.515Z,4.68
2024-05-09T01:54:57.909Z,4.70
2024-05-09T01:57:00.218Z,4.10
2024-05-09T01:59:02.640Z,4.45
2024-05-09T02:01:05.311Z,3.53
2024-05-09T02:03:15.557Z,4.28
2024-05-09T02:05:20.450Z,4.88
2024-05-09T02:07:22.837Z,4.57
2024-05-09T02:09:26.189Z,4.78
2024-05-09T02:11:28.599Z,4.47
2024-05-09T02:13:31.116Z,4.65
2024-05-09T02:15:33.718Z,4.03
2024-05-09T02:17:36.093Z,3.65
2024-05-09T02:19:38.738Z,5.25
2024-05-09T02:21:41.193Z,4.03
2024-05-09T02:23:43.481Z,4.57
2024-05-09T02:25:45.901Z,4.15
2024-05-09T02:27:48.361Z,4.32
2024-05-09T02:29:50.956Z,4.60
2024-05-09T02:31:53.457Z,3.95
2024-05-09T02:33:56.610Z,4.60
2024-05-09T02:35:59.150Z,4.40
2024-05-09T02:38:01.833Z,4.63
2024-05-09T02:40:07.120Z,4.20
2024-05-09T02:42:11.722Z,4.53
2024-05-09T02:44:14.120Z,4.65
2024-05-09T02:46:16.552Z,5.18
2024-05-09T02:48:19.221Z,4.55
2024-05-09T02:50:29.876Z,4.53
2024-05-09T02:52:39.686Z,6.07
2024-05-09T02:54:42.183Z,4.47
2024-05-09T02:56:44.593Z,4.93
2024-05-09T02:58:47.421Z,4.93
2024-05-09T03:00:49.965Z,5.40
2024-05-09T03:02:53.224Z,5.13
2024-05-09T03:04:56.125Z,4.78
2024-05-09T03:06:58.933Z,5.43
2024-05-09T03:09:01.349Z,4.72
2024-05-09T03:11:03.989Z,5.25
2024-05-09T03:13:08.458Z,5.00
2024-05-09T03:15:11.087Z,5.20
2024-05-09T03:17:13.613Z,4.88
2024-05-09T03:19:16.406Z,5.35
2024-05-09T03:21:19.030Z,5.25
2024-05-09T03:23:22.012Z,5.28
2024-05-09T03:25:24.477Z,5.20
2024-05-09T03:27:27.047Z,5.40
2024-05-09T03:29:29.886Z,5.82
2024-05-09T03:31:32.349Z,5.50
2024-05-09T03:33:35.574Z,5.63
2024-05-09T03:35:38.734Z,5.68
2024-05-09T03:37:41.128Z,6.25
2024-05-09T03:39:43.831Z,5.60
2024-05-09T03:41:46.256Z,6.22
2024-05-09T03:43:49.534Z,5.47
2024-05-09T03:45:52.115Z,7.25
2024-05-09T03:47:54.705Z,5.68
2024-05-09T03:49:57.818Z,6.32
2024-05-09T03:52:05.536Z,6.03
2024-05-09T03:54:08.075Z,5.82
2024-05-09T03:56:10.688Z,5.57
2024-05-09T03:58:14.796Z,5.60
2024-05-09T04:00:22.630Z,5.22
2024-05-09T04:02:33.924Z,5.25
2024-05-09T04:04:36.840Z,5.20
2024-05-09T04:06:40.149Z,4.93
2024-05-09T04:08:42.960Z,5.45
2024-05-09T04:10:46.295Z,5.38
2024-05-09T04:12:48.975Z,5.68
2024-05-09T04:14:51.824Z,5.13
2024-05-09T04:16:54.473Z,5.80
2024-05-09T04:18:57.054Z,5.45
2024-05-09T04:21:00.223Z,6.05
2024-05-09T04:23:02.950Z,5.47
2024-05-09T04:25:05.927Z,5.63
2024-05-09T04:27:08.617Z,5.72
2024-05-09T04:29:11.348Z,5.45
2024-05-09T04:31:13.870Z,5.20
2024-05-09T04:33:16.520Z,5.20
2024-05-09T04:35:22.853Z,5.53
2024-05-09T04:37:26.037Z,5.57
2024-05-09T04:39:28.741Z,4.90
2024-05-09T04:41:31.479Z,5.45
2024-05-09T04:43:35.572Z,5.03
2024-05-09T04:45:37.947Z,5.68
2024-05-09T04:47:40.808Z,5.18
2024-05-09T04:49:46.080Z,5.28
2024-05-09T04:51:48.525Z,5.57
2024-05-09T04:53:51.235Z,5.30
2024-05-09T04:55:54.019Z,5.03
2024-05-09T04:57:56.465Z,4.78
2024-05-09T04:59:59.208Z,5.32
2024-05-09T05:02:02.430Z,5.47
2024-05-09T05:04:05.447Z,5.10
2024-05-09T05:06:08.468Z,5.57
2024-05-09T05:08:16.880Z,6.10
2024-05-09T05:10:25.530Z,5.32
2024-05-09T05:12:50.991Z,5.32
2024-05-09T05:14:53.481Z,5.05
2024-05-09T05:16:56.035Z,5.30
2024-05-09T05:18:58.493Z,4.80
2024-05-09T05:21:01.330Z,5.80
2024-05-09T05:23:04.148Z,5.28
2024-05-09T05:25:07.290Z,5.40
2024-05-09T05:27:09.700Z,4.93
2024-05-09T05:29:12.094Z,4.75
2024-05-09T05:31:17.412Z,4.72
2024-05-09T05:33:20.452Z,4.72
2024-05-09T05:35:23.401Z,5.15
2024-05-09T05:37:25.806Z,4.85
2024-05-09T05:39:28.701Z,5.07
2024-05-09T05:41:31.270Z,4.95
2024-05-09T05:43:34.338Z,5.28
2024-05-09T05:45:37.369Z,4.75
2024-05-09T05:47:40.259Z,5.32
2024-05-09T05:49:42.798Z,4.53
2024-05-09T05:51:45.471Z,5.57
2024-05-09T05:53:47.923Z,4.97
2024-05-09T05:55:50.513Z,3.97
2024-05-09T05:57:52.812Z,4.38
2024-05-09T05:59:55.252Z,5.00
2024-05-09T06:01:57.764Z,4.57
2024-05-09T06:04:00.148Z,4.60
2024-05-09T06:06:03.876Z,4.50
2024-05-09T06:08:07.127Z,4.80
2024-05-09T06:10:17.267Z,4.55
2024-05-09T06:12:24.148Z,5.05
2024-05-09T06:14:26.818Z,4.68
2024-05-09T06:16:29.357Z,4.57
2024-05-09T06:18:32.374Z,4.78
2024-05-09T06:20:37.504Z,4.97
2024-05-09T06:22:40.951Z,4.88
2024-05-09T06:24:43.645Z,4.45
2024-05-09T06:26:46.782Z,4.70
2024-05-09T06:28:49.067Z,4.72
2024-05-09T06:30:51.429Z,4.50
2024-05-09T06:32:53.766Z,4.78
2024-05-09T06:34:56.153Z,4.28
2024-05-09T06:36:58.603Z,4.25
2024-05-09T06:39:01.321Z,4.90
2024-05-09T06:41:06.217Z,4.38
2024-05-09T06:43:16.902Z,4.00
2024-05-09T06:45:21.451Z,4.25
2024-05-09T06:47:23.750Z,4.38
2024-05-09T06:49:29.422Z,5.25
2024-05-09T06:51:32.054Z,4.75
2024-05-09T06:53:34.964Z,4.57
2024-05-09T06:55:37.992Z,4.30
2024-05-09T06:57:43.020Z,4.43
2024-05-09T06:59:45.947Z,3.95
2024-05-09T07:01:48.251Z,4.68
2024-05-09T07:03:50.556Z,4.47
2024-05-09T07:05:52.974Z,5.45
2024-05-09T07:07:55.373Z,4.45
2024-05-09T07:09:57.746Z,4.50
2024-05-09T07:12:04.078Z,4.20
2024-05-09T07:14:07.184Z,4.63
2024-05-09T07:16:09.657Z,4.70
2024-05-09T07:18:14.085Z,4.88
2024-05-09T07:20:23.526Z,5.03
2024-05-09T07:22:34.529Z,4.45
2024-05-09T07:24:37.634Z,4.95
2024-05-09T07:26:39.897Z,4.18
2024-05-09T07:28:42.822Z,4.68
2024-05-09T07:30:46.035Z,5.47
2024-05-09T07:32:49.070Z,4.63
2024-05-09T07:34:52.026Z,4.43
2024-05-09T07:36:54.362Z,4.47
2024-05-09T07:38:56.754Z,4.40
2024-05-09T07:40:59.370Z,5.15
2024-05-09T07:43:04.042Z,4.57
2024-05-09T07:45:24.224Z,4.82
2024-05-09T07:48:57.269Z,5.05
2024-05-09T07:51:32.806Z,5.05
2024-05-09T07:53:29.924Z,5.25
2024-05-09T07:54:39.021Z,4.63
2024-05-09T07:56:42.173Z,5.05
2024-05-09T07:58:46.108Z,5.00
2024-05-09T08:00:48.549Z,4.43
2024-05-09T08:02:51.330Z,4.85
2024-05-09T08:04:53.800Z,5.28
2024-05-09T08:06:56.189Z,5.20
2024-05-09T08:09:03.095Z,5.22
2024-05-09T08:11:10.222Z,5.53
2024-05-09T08:13:12.897Z,5.00
2024-05-09T08:15:15.558Z,5.43
2024-05-09T08:17:18.105Z,5.38
2024-05-09T08:19:21.107Z,5.60
2024-05-09T08:21:23.462Z,5.32
2024-05-09T08:23:26.085Z,4.88
2024-05-09T08:25:28.794Z,4.97
2024-05-09T08:27:31.268Z,4.63
2024-05-09T08:29:33.902Z,4.43
2024-05-09T08:31:39.829Z,5.05
2024-05-09T08:33:47.738Z,4.68
2024-05-09T08:35:51.198Z,4.50
2024-05-09T08:37:53.907Z,4.95
2024-05-09T08:39:57.669Z,5.47
2024-05-09T08:42:02.850Z,4.45
2024-05-09T08:44:05.327Z,4.47
2024-05-09T08:46:09.516Z,4.47
2024-05-09T08:48:13.903Z,4.25
2024-05-09T08:50:28.923Z,5.03
2024-05-09T08:52:38.564Z,4.50
2024-05-09T08:54:40.973Z,4.25
2024-05-09T08:56:46.884Z,4.00
2024-05-09T08:58:52.259Z,4.28
2024-05-09T09:00:55.610Z,4.90
2024-05-09T09:03:00.434Z,4.00
2024-05-09T09:05:11.757Z,3.85
2024-05-09T09:07:15.369Z,3.83
2024-05-09T09:09:18.347Z,3.90
2024-05-09T09:11:20.844Z,4.97
2024-05-09T09:13:23.551Z,4.13
2024-05-09T09:15:25.830Z,3.92
2024-05-09T09:17:28.238Z,3.72
2024-05-09T09:19:30.709Z,4.00
2024-05-09T09:21:33.147Z,3.75
2024-05-09T09:23:35.970Z,3.80
2024-05-09T09:25:41.198Z,3.47
2024-05-09T09:27:43.825Z,3.47
2024-05-09T09:29:46.347Z,4.03
2024-05-09T09:32:01.904Z,3.97
2024-05-09T09:34:08.927Z,4.10
2024-05-09T09:36:14.808Z,3.80
2024-05-09T09:38:23.240Z,3.63
2024-05-09T09:40:32.299Z,3.65
2024-05-09T09:42:38.559Z,3.60
2024-05-09T09:44:47.827Z,4.50
2024-05-09T09:46:58.643Z,4.15
2024-05-09T09:49:01.769Z,4.18
2024-05-09T09:51:05.755Z,3.65
2024-05-09T09:53:08.415Z,4.28
2024-05-09T09:55:11.870Z,3.90
2024-05-09T09:57:14.650Z,4.95
2024-05-09T09:59:17.411Z,5.80
2024-05-09T10:01:19.896Z,5.10
2024-05-09T10:03:22.834Z,3.60
2024-05-09T10:05:25.775Z,3.75
2024-05-09T10:07:30.078Z,4.10
2024-05-09T10:09:32.962Z,3.90
2024-05-09T10:11:42.038Z,4.57
2024-05-09T10:13:48.176Z,4.78
2024-05-09T10:15:54.676Z,4.30
2024-05-09T10:18:07.439Z,3.75
2024-05-09T10:20:18.291Z,3.58
2024-05-09T10:22:31.281Z,3.92
2024-05-09T10:24:51.233Z,4.28
2024-05-09T10:26:56.678Z,3.92
2024-05-09T10:28:59.416Z,4.20
2024-05-09T10:31:13.559Z,4.03
2024-05-09T10:33:20.635Z,4.05
2024-05-09T10:35:25.576Z,3.72
2024-05-09T10:37:31.806Z,3.75
2024-05-09T10:39:39.286Z,4.45
2024-05-09T10:41:41.836Z,3.60
2024-05-09T10:43:45.487Z,4.13
2024-05-09T10:45:49.710Z,3.60
2024-05-09T10:47:52.855Z,3.90
2024-05-09T10:49:57.456Z,4.40
2024-05-09T10:52:00.230Z,3.85
2024-05-09T10:54:04.076Z,3.42
2024-05-09T10:56:06.888Z,3.88
2024-05-09T10:58:18.477Z,3.60
2024-05-09T11:00:27.606Z,4.00
2024-05-09T11:02:36.312Z,4.35
2024-05-09T11:04:45.430Z,3.55
2024-05-09T11:06:48.366Z,3.90
2024-05-09T11:08:51.881Z,3.47
2024-05-09T11:10:55.380Z,3.58
2024-05-09T11:12:58.268Z,3.58
2024-05-09T11:15:01.288Z,3.55
2024-05-09T11:17:06.766Z,4.05
2024-05-09T11:19:14.535Z,3.45
2024-05-09T11:21:17.545Z,3.63
2024-05-09T11:23:22.336Z,3.85
2024-05-09T11:25:24.889Z,3.35
2024-05-09T11:27:27.281Z,3.28
2024-05-09T11:29:40.169Z,3.90
2024-05-09T11:31:49.554Z,4.43
2024-05-09T11:33:55.082Z,3.80
2024-05-09T11:35:57.946Z,3.30
2024-05-09T11:38:00.480Z,4.00
2024-05-09T11:40:04.376Z,3.35
2024-05-09T11:42:09.916Z,4.15
2024-05-09T11:44:13.696Z,3.40
2024-05-09T11:46:16.282Z,3.75
2024-05-09T11:48:19.339Z,4.70
2024-05-09T11:50:29.668Z,4.15
2024-05-09T11:52:35.556Z,4.00
2024-05-09T11:54:38.219Z,3.22
2024-05-09T11:56:41.342Z,3.50
2024-05-09T11:58:44.096Z,3.58
2024-05-09T12:00:47.187Z,3.70
2024-05-09T12:02:52.613Z,4.10
2024-05-09T12:04:55.602Z,3.97
2024-05-09T12:06:58.483Z,3.38
2024-05-09T12:09:01.733Z,4.00
2024-05-09T12:11:04.877Z,4.10
2024-05-09T12:13:08.094Z,3.60
2024-05-09T12:15:11.089Z,4.20
2024-05-09T12:17:13.946Z,4.32
2024-05-09T12:19:19.014Z,3.88
2024-05-09T12:21:22.036Z,3.60
2024-05-09T12:23:24.570Z,3.63
2024-05-09T12:25:27.139Z,3.88
2024-05-09T12:27:29.744Z,3.97
2024-05-09T12:29:33.336Z,3.40
2024-05-09T12:31:37.127Z,3.10
2024-05-09T12:33:39.958Z,3.53
2024-05-09T12:35:45.250Z,3.15
2024-05-09T12:37:49.854Z,3.38
2024-05-09T12:39:52.804Z,3.30
2024-05-09T12:41:55.819Z,2.83
2024-05-09T12:43:58.416Z,3.28
2024-05-09T12:46:01.474Z,3.30
2024-05-09T12:48:07.536Z,3.58
2024-05-09T12:50:18.967Z,3.20
2024-05-09T12:52:29.340Z,3.70
2024-05-09T12:54:33.954Z,2.63
2024-05-09T12:56:36.989Z,3.20
2024-05-09T12:58:39.859Z,4.60
2024-05-09T13:00:42.893Z,4.25
2024-05-09T13:02:45.628Z,31.70
2024-05-09T13:04:48.602Z,47.58
2024-05-09T13:06:51.086Z,141.05
2024-05-09T13:08:53.770Z,32.90
2024-05-09T13:10:56.540Z,6.53
2024-05-09T13:13:00.467Z,9.63
2024-05-09T13:15:04.376Z,30.98
2024-05-09T13:17:06.846Z,169.35
2024-05-09T13:19:09.398Z,371.45
2024-05-09T13:21:12.111Z,155.32
2024-05-09T13:23:14.592Z,32.90
2024-05-09T13:25:17.227Z,13.75
2024-05-09T13:27:19.948Z,4.70
2024-05-09T13:29:22.843Z,3.67
2024-05-09T13:31:25.616Z,3.15
2024-05-09T13:33:29.164Z,3.92
2024-05-09T13:35:32.459Z,3.00
2024-05-09T13:37:35.626Z,3.25
2024-05-09T13:39:38.375Z,3.40
2024-05-09T13:41:41.578Z,3.03
2024-05-09T13:43:44.085Z,3.80
2024-05-09T13:45:47.505Z,3.33
2024-05-09T13:47:50.747Z,2.80
2024-05-09T13:49:54.293Z,2.75
2024-05-09T13:51:57.313Z,2.92
2024-05-09T13:54:00.013Z,2.40
2024-05-09T13:56:03.108Z,2.40
2024-05-09T13:58:05.959Z,3.35
2024-05-09T14:00:22.304Z,2.53
2024-05-09T14:02:33.444Z,3.00
2024-05-09T14:04:36.259Z,2.63
2024-05-09T14:06:39.010Z,2.97
2024-05-09T14:08:41.877Z,2.45
2024-05-09T14:10:47.414Z,2.78
2024-05-09T14:12:50.063Z,2.55
2024-05-09T14:14:52.957Z,2.05
2024-05-09T14:16:55.432Z,2.88
2024-05-09T14:18:59.470Z,3.05
2024-05-09T14:21:02.295Z,2.42
2024-05-09T14:23:05.097Z,2.70
2024-05-09T14:25:09.958Z,2.70
2024-05-09T14:27:12.552Z,2.83
2024-05-09T14:29:15.008Z,2.50
2024-05-09T14:31:17.698Z,2.35
2024-05-09T14:33:25.640Z,2.47
2024-05-09T14:35:28.337Z,2.50
2024-05-09T14:37:30.849Z,2.65
2024-05-09T14:39:33.349Z,1.95
2024-05-09T14:41:35.904Z,2.60
2024-05-09T14:43:38.430Z,2.53
2024-05-09T14:45:42.174Z,3.08
2024-05-09T14:47:45.019Z,2.90
2024-05-09T14:49:47.785Z,10.07
2024-05-09T14:51:51.004Z,5.60
2024-05-09T14:53:53.372Z,32.45
2024-05-09T14:55:55.935Z,4.90
2024-05-09T14:57:58.655Z,2.50
2024-05-09T15:00:02.082Z,2.40
2024-05-09T15:02:06.747Z,2.33
2024-05-09T15:04:09.493Z,2.45
2024-05-09T15:06:12.134Z,2.53
2024-05-09T15:08:18.215Z,2.78
2024-05-09T15:10:27.469Z,3.15
2024-05-09T15:12:37.209Z,3.17
2024-05-09T15:14:39.800Z,3.17
2024-05-09T15:16:42.758Z,2.45
2024-05-09T15:18:45.438Z,2.70
2024-05-09T15:20:48.464Z,2.80
2024-05-09T15:22:51.318Z,3.58
2024-05-09T15:24:54.621Z,3.80
2024-05-09T15:26:57.137Z,2.72
2024-05-09T15:28:59.573Z,2.60
2024-05-09T15:31:02.037Z,3.20
2024-05-09T15:33:05.333Z,2.72
2024-05-09T15:35:08.958Z,2.78
2024-05-09T15:37:11.399Z,2.72
2024-05-09T15:39:13.795Z,2.30
2024-05-09T15:41:16.297Z,2.55
2024-05-09T15:43:18.825Z,2.50
2024-05-09T15:45:21.474Z,2.53
2024-05-09T15:47:23.834Z,2.83
2024-05-09T15:49:26.385Z,2.90
2024-05-09T15:51:29.464Z,2.70
2024-05-09T15:53:32.162Z,2.65
2024-05-09T15:55:34.911Z,2.30
2024-05-09T15:57:37.627Z,2.55
2024-05-09T15:59:40.323Z,2.58
2024-05-09T16:01:42.931Z,2.97
2024-05-09T16:03:45.665Z,2.42
2024-05-09T16:05:48.932Z,2.47
2024-05-09T16:07:52.603Z,2.33
2024-05-09T16:09:56.280Z,2.05
2024-05-09T16:11:58.803Z,2.80
2024-05-09T16:14:01.281Z,3.08
2024-05-09T16:16:04.104Z,2.72
2024-05-09T16:18:07.051Z,2.42
2024-05-09T16:20:15.149Z,2.50
2024-05-09T16:22:20.975Z,2.22
2024-05-09T16:24:23.332Z,2.33
2024-05-09T16:26:26.917Z,2.55
2024-05-09T16:28:29.595Z,2.45
2024-05-09T16:30:35.435Z,2.13
2024-05-09T16:32:41.665Z,2.72
2024-05-09T16:34:44.557Z,2.30
2024-05-09T16:36:47.400Z,2.60
2024-05-09T16:38:49.825Z,2.20
2024-05-09T16:40:52.479Z,2.30
2024-05-09T16:42:55.006Z,2.40
2024-05-09T16:44:57.435Z,1.95
2024-05-09T16:46:59.902Z,2.40
2024-05-09T16:49:03.217Z,2.28
2024-05-09T16:51:06.302Z,2.08
2024-05-09T16:53:09.238Z,2.30
2024-05-09T16:55:11.961Z,2.20
2024-05-09T16:57:14.549Z,2.42
2024-05-09T16:59:17.307Z,2.28
2024-05-09T17:01:19.880Z,2.30
2024-05-09T17:03:23.923Z,2.30
2024-05-09T17:05:28.903Z,2.10
2024-05-09T17:07:32.031Z,2.13
2024-05-09T17:09:34.708Z,2.40
2024-05-09T17:11:37.332Z,2.28
2024-05-09T17:13:41.219Z,2.10
2024-05-09T17:15:43.526Z,1.92
2024-05-09T17:17:46.047Z,2.35
2024-05-09T17:19:48.802Z,1.90
2024-05-09T17:21:51.314Z,2.10
2024-05-09T17:23:55.931Z,1.80
2024-05-09T17:26:00.974Z,1.80
2024-05-09T17:28:07.490Z,2.00
2024-05-09T17:32:15.492Z,1.70
2024-05-09T17:34:17.924Z,2.15
2024-05-09T17:36:20.856Z,1.90
2024-05-09T17:38:23.940Z,1.83
2024-05-09T17:40:32.624Z,1.80
2024-05-09T17:42:38.408Z,2.40
2024-05-09T17:44:41.062Z,2.03
2024-05-09T17:46:43.573Z,2.00
2024-05-09T17:48:46.064Z,2.17
2024-05-09T17:50:51.310Z,1.90
2024-05-09T17:52:53.907Z,2.08
2024-05-09T17:54:56.411Z,2.00
2024-05-09T17:56:58.992Z,2.17
2024-05-09T17:59:01.650Z,2.28
2024-05-09T18:01:04.494Z,2.22
2024-05-09T18:03:07.380Z,2.92
2024-05-09T18:05:11.080Z,2.55
2024-05-09T18:07:13.745Z,2.47
2024-05-09T18:09:16.105Z,3.35
2024-05-09T18:11:18.522Z,3.00
2024-05-09T18:13:21.085Z,2.85
2024-05-09T18:15:23.779Z,2.65
2024-05-09T18:17:26.599Z,2.53
2024-05-09T18:19:29.063Z,2.95
2024-05-09T18:21:31.850Z,4.95
2024-05-09T18:23:35.363Z,7.00
2024-05-09T18:25:38.030Z,6.20
2024-05-09T18:27:40.546Z,4.72
2024-05-09T18:29:43.141Z,4.65
2024-05-09T18:31:45.693Z,4.57
2024-05-09T18:33:48.234Z,5.10
2024-05-09T18:35:51.257Z,5.18
2024-05-09T18:37:54.015Z,5.60
2024-05-09T18:39:56.702Z,5.40
2024-05-09T18:42:00.978Z,4.75
2024-05-09T18:44:04.267Z,4.90
2024-05-09T18:46:07.004Z,3.70
2024-05-09T18:48:10.793Z,3.50
2024-05-09T18:50:20.458Z,3.50
2024-05-09T18:52:30.328Z,4.25
2024-05-09T18:54:32.911Z,3.20
2024-05-09T18:56:37.748Z,3.00
2024-05-09T18:58:40.207Z,2.10
2024-05-09T19:00:45.374Z,2.53
2024-05-09T19:02:50.020Z,2.45
2024-05-09T19:04:53.265Z,3.17
2024-05-09T19:06:56.100Z,3.47
2024-05-09T19:08:58.946Z,3.72
2024-05-09T19:11:02.314Z,2.83
2024-05-09T19:13:09.252Z,3.03
2024-05-09T19:15:16.098Z,2.72
2024-05-09T19:17:19.004Z,2.63
2024-05-09T19:19:22.396Z,2.20
2024-05-09T19:21:24.913Z,2.63
2024-05-09T19:23:27.554Z,2.97
2024-05-09T19:25:30.219Z,1.92
2024-05-09T19:27:33.362Z,2.15
2024-05-09T19:29:36.463Z,2.70
2024-05-09T19:31:38.981Z,2.30
2024-05-09T19:33:41.471Z,1.88
2024-05-09T19:35:44.238Z,1.83
2024-05-09T19:37:49.236Z,2.15
2024-05-09T19:39:52.100Z,1.92
2024-05-09T19:41:54.621Z,2.08
2024-05-09T19:43:57.171Z,1.80
2024-05-09T19:45:59.610Z,1.73
2024-05-09T19:48:02.673Z,2.08
2024-05-09T19:50:10.753Z,2.10
2024-05-09T19:52:16.349Z,1.75
2024-05-09T19:54:19.363Z,2.13
2024-05-09T19:56:22.543Z,2.15
2024-05-09T19:58:26.075Z,2.42
2024-05-09T20:00:34.744Z,2.45
2024-05-09T20:02:38.885Z,2.70
2024-05-09T20:04:44.193Z,2.25
2024-05-09T20:06:47.203Z,2.38
2024-05-09T20:08:49.805Z,2.42
2024-05-09T20:10:52.367Z,2.42
2024-05-09T20:12:54.928Z,2.45
2024-05-09T20:14:57.436Z,2.45
2024-05-09T20:16:59.870Z,2.47
2024-05-09T20:19:02.638Z,2.28
2024-05-09T20:21:06.751Z,2.53
2024-05-09T20:23:10.596Z,2.45
2024-05-09T20:25:13.315Z,3.25
2024-05-09T20:27:15.804Z,2.72
2024-05-09T20:29:18.439Z,2.60
2024-05-09T20:31:24.079Z,2.63
2024-05-09T20:33:28.813Z,2.40
2024-05-09T20:35:35.027Z,2.17
2024-05-09T20:37:37.883Z,2.33
2024-05-09T20:39:40.280Z,2.15
2024-05-09T20:41:44.088Z,2.45
2024-05-09T20:43:46.490Z,2.33
2024-05-09T20:45:49.021Z,2.30
2024-05-09T20:47:51.429Z,2.40
2024-05-09T20:49:54.003Z,3.05
2024-05-09T20:51:56.574Z,2.63
2024-05-09T20:53:59.734Z,3.00
2024-05-09T20:56:02.253Z,2.55
2024-05-09T20:58:05.112Z,3.13
2024-05-09T21:00:14.946Z,3.58
2024-05-09T21:02:21.191Z,3.38
2024-05-09T21:04:24.422Z,3.53
2024-05-09T21:06:27.022Z,4.22
2024-05-09T21:08:29.389Z,4.28
2024-05-09T21:10:33.564Z,3.67
2024-05-09T21:12:37.034Z,3.70
2024-05-09T21:14:39.421Z,3.65
2024-05-09T21:16:41.825Z,4.15
2024-05-09T21:18:44.609Z,3.75
2024-05-09T21:20:47.123Z,4.32
2024-05-09T21:22:49.715Z,4.22
2024-05-09T21:24:52.528Z,3.95
2024-05-09T21:26:55.368Z,3.97
2024-05-09T21:28:58.313Z,4.05
2024-05-09T21:31:00.810Z,4.65
2024-05-09T21:33:03.423Z,4.50
2024-05-09T21:35:06.603Z,5.25
2024-05-09T21:37:09.233Z,4.60
2024-05-09T21:39:11.966Z,3.92
2024-05-09T21:41:14.750Z,4.65
2024-05-09T21:43:17.228Z,4.88
2024-05-09T21:45:20.144Z,4.18
2024-05-09T21:47:22.999Z,4.90
2024-05-09T21:49:25.870Z,5.35
2024-05-09T21:51:29.731Z,5.75
2024-05-09T21:53:33.305Z,5.10
2024-05-09T21:55:36.717Z,4.80
2024-05-09T21:57:39.161Z,5.38
2024-05-09T21:59:42.594Z,4.38
2024-05-09T22:01:45.042Z,4.10
2024-05-09T22:03:47.744Z,4.93
2024-05-09T22:05:50.607Z,4.32
2024-05-09T22:07:53.516Z,4.00
2024-05-09T22:09:56.364Z,4.13
2024-05-09T22:11:59.296Z,3.72
2024-05-09T22:14:01.921Z,4.28
2024-05-09T22:16:04.789Z,4.00
2024-05-09T22:18:08.836Z,4.35
2024-05-09T22:20:18.421Z,3.55
2024-05-09T22:22:28.198Z,4.00
2024-05-09T22:24:30.751Z,4.68
2024-05-09T22:26:33.254Z,3.78
2024-05-09T22:28:35.983Z,4.05
2024-05-09T22:30:40.283Z,4.53
2024-05-09T22:32:43.278Z,4.53
2024-05-09T22:34:45.764Z,4.00
2024-05-09T22:36:48.487Z,3.88
2024-05-09T22:38:51.092Z,3.80
2024-05-09T22:40:53.563Z,3.95
2024-05-09T22:42:56.337Z,4.38
2024-05-09T22:44:58.903Z,4.50
2024-05-09T22:47:01.319Z,4.72
2024-05-09T22:49:04.410Z,4.40
2024-05-09T22:51:07.248Z,4.20
2024-05-09T22:53:10.811Z,5.10
2024-05-09T22:55:14.110Z,4.63
2024-05-09T22:57:16.894Z,4.75
2024-05-09T22:59:19.603Z,4.68
2024-05-09T23:01:26.312Z,5.07
2024-05-09T23:03:29.495Z,4.80
2024-05-09T23:05:33.048Z,5.03
2024-05-09T23:07:35.848Z,4.32
2024-05-09T23:09:38.513Z,5.20
2024-05-09T23:11:42.379Z,4.97
2024-05-09T23:13:44.902Z,4.57
2024-05-09T23:15:47.425Z,5.50
2024-05-09T23:17:50.344Z,5.53
2024-05-09T23:19:52.996Z,5.00
2024-05-09T23:21:55.719Z,4.55
2024-05-09T23:23:58.402Z,4.30
2024-05-09T23:26:01.251Z,5.07
2024-05-09T23:28:04.713Z,5.60
2024-05-09T23:30:12.164Z,4.65
2024-05-09T23:32:15.301Z,5.13
2024-05-09T23:34:18.070Z,4.78
2024-05-09T23:36:21.326Z,4.72
2024-05-09T23:38:25.179Z,4.57
2024-05-09T23:40:37.481Z,5.22
2024-05-09T23:42:43.124Z,4.03
2024-05-09T23:44:46.532Z,4.00
2024-05-09T23:46:49.013Z,4.95
2024-05-09T23:48:51.968Z,4.43
2024-05-09T23:50:54.670Z,5.07
2024-05-09T23:52:57.376Z,4.53
2024-05-09T23:54:59.855Z,4.30
2024-05-09T23:57:02.531Z,4.57
2024-05-09T23:59:05.256Z,4.65
